TJSJTUPJ

Guest
Details From TJSJ - San Juan - Luis Munoz Marin Intl
To TUPJ - Tortola - Terrance B Lettsome Intl
Flight Number -
Tags generated
Created
Modified
Stats Distance 83 nm / 154 km
Max Altitude 7,400 ft / 2,256 m
Waypoints 4
Social Downloads 1
Likes 0
Share VATSIM

Download

Looking for another format? Having issues loading an existing format? Contact us
Advertisement - Login to hide

Notes

Basic altitude profile: - Ascent Rate: 2500ft/min - Ascent Speed: 250kts - Cruise Altitude: 35000ft - Cruise Speed: 420kts - Descent Rate: 1500ft/min - Descent Speed: 250kts Options: - Use NATs: yes - Use PACOTS: yes - Use low airways: yes - Use high airways: yes

Route

TJSJ ISLLA RTE2 FAJAR TUPJ

ID Type Via Altitude Latitude Longitude Leg Dist Tot Dist Heading (true) Name
O TJSJ APT - 0 ft / 0 m 18.43878˚ -66.00202˚ - 0 nm - San Juan - Luis Munoz Marin Intl
ISLLA FIX - 4,100 ft / 1,250 m 18.45902˚ -65.79711˚ 11 nm 11 nm 84° / 84° -
FAJAR FIX RTE2 (AWY-LO) 7,400 ft / 2,256 m 18.46930˚ -65.63967˚ 8 nm 20 nm 86° / 86° -
O TUPJ APT - 0 ft / 0 m 18.44552˚ -64.54159˚ 62 nm 83 nm 91° / 91° Tortola - Terrance B Lettsome Intl

Altitude Profile

Advertisement - Login to hide

TJSJ

Details ICAO TJSJ (SJU)
Name San Juan - Luis Munoz Marin Intl
Region USA (Puerto Rico)
Timezone America/Puerto_Rico (UTC-4.0)
Stats Elevation 9 ft / 3 m (AMSL)
Location 18.438777° -66.002018°
Runways 2
Magnetic Variation 13.222° W

METAR

TJSJ 132256Z 16006KT 10SM FEW030 SCT050 SCT095 28/22 A2998

Decode

TAF

TJSJ 131739Z 1318/1418 05010KT P6SM VCSH SCT025 SCT050 FM132300 11005KT P6SM FEW060 FM141400 08012KT P6SM SCT025

Decode

Departure Runways

ID Width Length Bearing (true) Bearing (mag) Surface Threshold Offset Overrun Length
08 200 ft / 61 m 9,781 ft / 2,981 m 66.87° 80.09° Asphalt 0 ft / 0 m 200 ft / 61 m
10 151 ft / 46 m 8,007 ft / 2,440 m 90.14° 103.36° Concrete 0 ft / 0 m 200 ft / 61 m
26 200 ft / 61 m 9,781 ft / 2,981 m 246.88° 260.10° Asphalt 0 ft / 0 m 230 ft / 70 m
28 151 ft / 46 m 8,007 ft / 2,440 m 270.15° 283.37° Concrete 0 ft / 0 m 200 ft / 61 m

TUPJ

Details ICAO TUPJ (EIS)
Name Tortola - Terrance B Lettsome Intl
Region UK (British Virgin Islands)
Timezone America/Tortola (UTC-4.0)
Stats Elevation 15 ft / 5 m (AMSL)
Location 18.445519° -64.541589°
Runways 1
Magnetic Variation 13.809° W

METAR

Not found

TAF

TAF TUPJ 131201Z 1312/1412 00000KT 9999 FEWO22

Decode

Destination Runways

ID Width Length Bearing (true) Bearing (mag) Surface Threshold Offset Overrun Length
07 89 ft / 27 m 4,644 ft / 1,415 m 60.46° 74.27° Asphalt 489 ft / 149 m 0 ft / 0 m
25 89 ft / 27 m 4,644 ft / 1,415 m 240.47° 254.28° Asphalt 194 ft / 59 m 0 ft / 0 m

Popular Alternatives